createdAt,value
2024-04-18T00:01:01.110Z,5.268
2024-04-18T00:05:56.507Z,5.319
2024-04-18T00:10:56.467Z,5.319
2024-04-18T00:16:01.031Z,5.339
2024-04-18T00:20:54.726Z,5.339
2024-04-18T00:25:55.199Z,5.359
2024-04-18T00:31:01.523Z,5.409
2024-04-18T00:35:54.621Z,5.389
2024-04-18T00:40:55.468Z,5.359
2024-04-18T00:46:01.645Z,5.319
2024-04-18T00:50:52.247Z,5.178
2024-04-18T00:55:52.740Z,5.168
2024-04-18T01:00:59.069Z,5.087
2024-04-18T01:05:56.907Z,5.027
2024-04-18T01:10:55.016Z,4.946
2024-04-18T01:15:53.231Z,4.956
2024-04-18T01:20:54.924Z,4.986
2024-04-18T01:25:54.980Z,4.996
2024-04-18T01:31:03.461Z,5.057
2024-04-18T01:35:50.612Z,5.057
2024-04-18T01:40:50.966Z,5.047
2024-04-18T01:45:57.842Z,5.077
2024-04-18T01:50:54.451Z,5.127
2024-04-18T01:55:53.781Z,5.157
2024-04-18T02:01:00.544Z,5.198
2024-04-18T02:05:53.920Z,5.178
2024-04-18T02:10:53.251Z,5.107
2024-04-18T02:15:53.923Z,5.137
2024-04-18T02:20:53.554Z,5.107
2024-04-18T02:25:53.898Z,5.057
2024-04-18T02:31:01.037Z,5.047
2024-04-18T02:35:51.482Z,5.027
2024-04-18T02:40:56.207Z,4.976
2024-04-18T02:45:57.374Z,4.906
2024-04-18T02:50:51.932Z,4.865
2024-04-18T02:55:55.172Z,4.865
2024-04-18T03:01:03.482Z,4.815
2024-04-18T03:05:58.221Z,4.684
2024-04-18T03:10:58.707Z,4.654
2024-04-18T03:15:57.111Z,4.654
2024-04-18T03:20:53.723Z,4.583
2024-04-18T03:25:57.267Z,4.513
2024-04-18T03:30:55.329Z,4.553
2024-04-18T03:35:52.808Z,4.513
2024-04-18T03:40:58.201Z,4.453
2024-04-18T03:45:57.209Z,4.473
2024-04-18T03:50:57.721Z,4.402
2024-04-18T03:55:58.056Z,4.352
2024-04-18T04:00:57.787Z,4.412
2024-04-18T04:05:55.703Z,4.432
2024-04-18T04:11:00.848Z,4.503
2024-04-18T04:15:57.896Z,4.583
2024-04-18T04:21:01.270Z,4.664
2024-04-18T04:25:59.454Z,4.795
2024-04-18T04:30:58.900Z,4.875
2024-04-18T04:35:58.178Z,4.996
2024-04-18T04:40:59.291Z,5.047
2024-04-18T04:46:07.905Z,5.077
2024-04-18T04:51:02.013Z,5.198
2024-04-18T04:56:01.602Z,5.309
2024-04-18T05:01:14.790Z,5.46
2024-04-18T05:06:02.063Z,5.691
2024-04-18T05:11:04.948Z,5.893
2024-04-18T05:15:58.545Z,6.074
2024-04-18T05:21:01.882Z,6.295
2024-04-18T05:25:59.121Z,6.396
2024-04-18T05:31:03.598Z,6.487
2024-04-18T05:36:02.560Z,6.658
2024-04-18T05:41:05.830Z,6.849
2024-04-18T05:46:00.877Z,7.242
2024-04-18T05:51:03.724Z,7.897
2024-04-18T05:55:59.765Z,8.491
2024-04-18T06:01:06.475Z,8.692
2024-04-18T06:06:02.964Z,8.551
2024-04-18T06:11:01.633Z,8.642
2024-04-18T06:16:08.747Z,8.823
2024-04-18T06:21:01.409Z,8.904
2024-04-18T06:26:01.673Z,9.065
2024-04-18T06:31:06.934Z,9.206
2024-04-18T06:36:01.879Z,9.75
2024-04-18T06:41:01.876Z,10.686
2024-04-18T06:46:07.715Z,11.683
2024-04-18T06:51:05.016Z,12.67
2024-04-18T06:56:02.965Z,13.003
2024-04-18T07:01:09.974Z,13.446
2024-04-18T07:06:03.136Z,13.567
2024-04-18T07:11:02.761Z,13.345
2024-04-18T07:16:03.665Z,13.134
2024-04-18T07:21:02.779Z,13.043
2024-04-18T07:26:02.736Z,13.416
2024-04-18T07:31:01.589Z,13.869
2024-04-18T07:36:03.122Z,14.604
2024-04-18T07:41:06.120Z,15.309
2024-04-18T07:46:06.637Z,15.339
2024-04-18T07:51:00.624Z,15.561
2024-04-18T07:56:01.321Z,15.833
2024-04-18T08:01:06.804Z,15.863
2024-04-18T08:06:02.537Z,16.074
2024-04-18T08:11:41.239Z,16.266
2024-04-18T08:16:09.047Z,15.772
2024-04-18T08:21:01.746Z,15.611
2024-04-18T08:25:58.270Z,15.52
2024-04-18T08:31:07.238Z,15.097
2024-04-18T08:36:03.117Z,15.742
2024-04-18T08:41:02.816Z,16.125
2024-04-18T08:46:04.418Z,15.984
2024-04-18T08:51:01.116Z,15.359
2024-04-18T08:56:01.897Z,15.44
2024-04-18T09:01:06.440Z,15.54
2024-04-18T09:06:03.779Z,15.923
2024-04-18T09:11:06.647Z,15.319
2024-04-18T09:16:00.658Z,13.879
2024-04-18T09:21:04.001Z,14.211
2024-04-18T09:26:00.997Z,14.866
2024-04-18T09:31:06.500Z,15.44
2024-04-18T09:36:04.850Z,15.873
2024-04-18T09:41:02.258Z,15.681
2024-04-18T09:46:07.280Z,15.53
2024-04-18T09:51:02.493Z,15.712
2024-04-18T09:56:01.056Z,16.054
2024-04-18T10:01:07.297Z,16.195
2024-04-18T10:05:59.997Z,15.943
2024-04-18T10:10:59.876Z,15.037
2024-04-18T10:16:02.360Z,14.392
2024-04-18T10:20:59.787Z,13.597
2024-04-18T10:26:01.395Z,13.053
2024-04-18T10:31:00.768Z,14.06
2024-04-18T10:36:01.696Z,13.919
2024-04-18T10:41:00.343Z,13.778
2024-04-18T10:46:00.059Z,13.285
2024-04-18T10:51:01.410Z,12.862
2024-04-18T10:56:04.535Z,12.852
2024-04-18T11:01:03.512Z,13.043
2024-04-18T11:06:00.652Z,12.67
2024-04-18T11:11:00.269Z,12.65
2024-04-18T11:16:03.721Z,12.499
2024-04-18T11:20:58.115Z,12.278
2024-04-18T11:26:01.083Z,12.137
2024-04-18T11:31:02.063Z,12.298
2024-04-18T11:35:59.390Z,12.388
2024-04-18T11:40:58.371Z,12.126
2024-04-18T11:46:01.372Z,11.915
2024-04-18T11:51:00.777Z,11.905
2024-04-18T11:56:02.537Z,12.368
2024-04-18T12:01:01.331Z,12.701
2024-04-18T12:05:59.469Z,12.791
2024-04-18T12:11:00.190Z,13.013
2024-04-18T12:16:02.334Z,12.922
2024-04-18T12:21:00.739Z,13.003
2024-04-18T12:26:02.224Z,13.234
2024-04-18T12:31:06.732Z,13.446
2024-04-18T12:36:01.959Z,13.234
2024-04-18T12:41:00.473Z,13.003
2024-04-18T12:46:18.470Z,13.013
2024-04-18T12:50:59.318Z,13.295
2024-04-18T12:55:58.564Z,13.234
2024-04-18T13:01:07.053Z,13.224
2024-04-18T13:05:59.607Z,13.164
2024-04-18T13:10:59.339Z,13.234
2024-04-18T13:16:04.774Z,12.972
2024-04-18T13:20:59.186Z,12.721
2024-04-18T13:26:01.421Z,12.902
2024-04-18T13:31:07.370Z,13.184
2024-04-18T13:35:58.610Z,13.103
2024-04-18T13:40:58.128Z,12.952
2024-04-18T13:46:03.532Z,12.771
2024-04-18T13:50:57.239Z,12.771
2024-04-18T13:56:00.289Z,12.68
2024-04-18T14:01:03.637Z,12.64
2024-04-18T14:05:59.680Z,12.64
2024-04-18T14:10:59.420Z,12.68
2024-04-18T14:15:58.515Z,12.741
2024-04-18T14:20:57.157Z,12.68
2024-04-18T14:26:01.293Z,12.65
2024-04-18T14:31:00.857Z,12.338
2024-04-18T14:36:02.312Z,12.086
2024-04-18T14:41:11.213Z,12.086
2024-04-18T14:46:01.270Z,11.985
2024-04-18T14:51:01.746Z,12.046
2024-04-18T14:55:58.899Z,12.006
2024-04-18T15:00:59.598Z,11.935
2024-04-18T15:05:59.666Z,11.935
2024-04-18T15:11:00.442Z,11.975
2024-04-18T15:16:03.823Z,11.965
2024-04-18T15:21:00.563Z,11.834
2024-04-18T15:26:00.278Z,11.784
2024-04-18T15:31:04.073Z,11.804
2024-04-18T15:36:00.121Z,11.794
2024-04-18T15:41:00.963Z,11.724
2024-04-18T15:46:06.514Z,11.693
2024-04-18T15:51:00.508Z,11.633
2024-04-18T15:55:59.364Z,11.462
2024-04-18T16:01:04.832Z,11.019
2024-04-18T16:05:59.626Z,10.686
2024-04-18T16:10:58.055Z,10.354
2024-04-18T16:16:05.407Z,10.304
2024-04-18T16:20:59.021Z,10.223
2024-04-18T16:25:56.748Z,10.072
2024-04-18T16:31:06.502Z,9.921
2024-04-18T16:35:56.283Z,9.8
2024-04-18T16:40:59.851Z,9.709
2024-04-18T16:46:02.206Z,9.639
2024-04-18T16:50:59.196Z,9.589
2024-04-18T16:56:01.537Z,9.609
2024-04-18T17:01:13.025Z,9.619
2024-04-18T17:05:59.583Z,9.609
2024-04-18T17:10:59.971Z,9.639
2024-04-18T17:15:59.232Z,9.589
2024-04-18T17:20:57.758Z,9.498
2024-04-18T17:25:58.838Z,9.427
2024-04-18T17:30:59.861Z,9.347
2024-04-18T17:35:57.533Z,9.236
2024-04-18T17:41:01.111Z,9.105
2024-04-18T17:46:09.824Z,8.994
2024-04-18T17:50:57.692Z,8.853
2024-04-18T17:55:58.111Z,8.733
2024-04-18T18:01:04.421Z,8.612
2024-04-18T18:05:55.758Z,8.441
2024-04-18T18:10:55.053Z,8.4
2024-04-18T18:15:55.949Z,8.41
2024-04-18T18:20:56.314Z,8.37
2024-04-18T18:25:56.326Z,8.31
2024-04-18T18:31:10.766Z,8.279
2024-04-18T18:35:53.911Z,8.249
2024-04-18T18:40:57.157Z,8.229
2024-04-18T18:46:09.002Z,8.31
2024-04-18T18:50:58.678Z,8.36
2024-04-18T18:55:58.060Z,8.36
2024-04-18T19:01:04.510Z,8.36
2024-04-18T19:05:54.989Z,8.34
2024-04-18T19:10:48.478Z,8.31
2024-04-18T19:15:56.329Z,8.34
2024-04-18T19:20:56.798Z,8.279
2024-04-18T19:25:56.150Z,8.229
2024-04-18T19:31:05.324Z,8.209
2024-04-18T19:35:56.462Z,8.068
2024-04-18T19:40:55.524Z,7.967
2024-04-18T19:46:05.104Z,7.856
2024-04-18T19:50:57.045Z,7.746
2024-04-18T19:55:57.145Z,7.705
2024-04-18T20:01:08.555Z,7.645
2024-04-18T20:05:56.473Z,7.524
2024-04-18T20:10:56.862Z,7.464
2024-04-18T20:16:06.860Z,7.393
2024-04-18T20:20:58.758Z,7.232
2024-04-18T20:25:55.519Z,7.131
2024-04-18T20:31:02.514Z,7.081
2024-04-18T20:35:56.760Z,7
2024-04-18T20:40:53.148Z,6.92
2024-04-18T20:45:59.003Z,6.829
2024-04-18T20:50:56.124Z,6.688
2024-04-18T20:55:55.146Z,6.648
2024-04-18T21:01:04.327Z,6.618
2024-04-18T21:05:56.547Z,6.628
2024-04-18T21:10:56.875Z,6.588
2024-04-18T21:15:53.735Z,6.537
2024-04-18T21:20:52.991Z,6.436
2024-04-18T21:25:55.346Z,6.336
2024-04-18T21:30:56.658Z,6.205
2024-04-18T21:35:54.799Z,6.175
2024-04-18T21:40:57.624Z,6.074
2024-04-18T21:45:55.012Z,5.872
2024-04-18T21:50:56.817Z,5.772
2024-04-18T21:55:57.236Z,5.641
2024-04-18T22:01:14.653Z,5.681
2024-04-18T22:05:59.050Z,5.691
2024-04-18T22:10:53.969Z,5.691
2024-04-18T22:16:18.627Z,5.711
2024-04-18T22:20:55.614Z,5.772
2024-04-18T22:25:55.578Z,5.782
2024-04-18T22:30:57.523Z,5.782
2024-04-18T22:35:56.728Z,5.792
2024-04-18T22:40:52.185Z,5.752
2024-04-18T22:46:01.161Z,5.721
2024-04-18T22:50:51.076Z,5.631
2024-04-18T22:55:54.038Z,5.631
2024-04-18T23:01:01.389Z,5.601
2024-04-18T23:05:56.155Z,5.56
2024-04-18T23:10:54.192Z,5.56
2024-04-18T23:15:54.547Z,5.57
2024-04-18T23:20:46.822Z,5.611
2024-04-18T23:25:50.887Z,5.53
2024-04-18T23:30:53.881Z,5.45
2024-04-18T23:35:48.961Z,5.5
2024-04-18T23:40:50.597Z,5.46
2024-04-18T23:45:55.754Z,5.419
2024-04-18T23:50:51.633Z,5.349
2024-04-18T23:55:54.962Z,5.248
